sensor_id;sensor_type;location;lat;lon;timestamp;P1;durP1;ratioP1;P2;durP2;ratioP2
2338;SDS011;1180;51.438;6.978;2023-07-29T00:01:43;2.13;;;1.20;;
2338;SDS011;1180;51.438;6.978;2023-07-29T00:04:09;1.47;;;1.37;;
2338;SDS011;1180;51.438;6.978;2023-07-29T00:06:35;2.17;;;1.80;;
2338;SDS011;1180;51.438;6.978;2023-07-29T00:09:02;2.00;;;1.90;;
2338;SDS011;1180;51.438;6.978;2023-07-29T00:11:28;4.77;;;1.97;;
2338;SDS011;1180;51.438;6.978;2023-07-29T00:13:54;2.10;;;1.90;;
2338;SDS011;1180;51.438;6.978;2023-07-29T00:16:20;1.80;;;1.70;;
2338;SDS011;1180;51.438;6.978;2023-07-29T00:18:49;1.97;;;1.70;;
2338;SDS011;1180;51.438;6.978;2023-07-29T00:21:15;2.27;;;1.97;;
2338;SDS011;1180;51.438;6.978;2023-07-29T00:23:41;2.07;;;1.97;;
2338;SDS011;1180;51.438;6.978;2023-07-29T00:26:07;1.67;;;1.57;;
2338;SDS011;1180;51.438;6.978;2023-07-29T00:28:32;2.13;;;1.93;;
2338;SDS011;1180;51.438;6.978;2023-07-29T00:30:58;1.90;;;1.80;;
2338;SDS011;1180;51.438;6.978;2023-07-29T00:33:24;2.20;;;2.07;;
2338;SDS011;1180;51.438;6.978;2023-07-29T00:35:50;2.97;;;1.50;;
2338;SDS011;1180;51.438;6.978;2023-07-29T00:38:16;2.30;;;2.10;;
2338;SDS011;1180;51.438;6.978;2023-07-29T00:40:41;2.37;;;1.70;;
2338;SDS011;1180;51.438;6.978;2023-07-29T00:43:08;1.60;;;1.50;;
2338;SDS011;1180;51.438;6.978;2023-07-29T00:45:34;2.27;;;1.40;;
2338;SDS011;1180;51.438;6.978;2023-07-29T00:48:00;1.80;;;1.70;;
2338;SDS011;1180;51.438;6.978;2023-07-29T00:50:26;1.70;;;1.60;;
2338;SDS011;1180;51.438;6.978;2023-07-29T00:52:54;1.70;;;1.60;;
2338;SDS011;1180;51.438;6.978;2023-07-29T00:55:21;1.80;;;1.70;;
2338;SDS011;1180;51.438;6.978;2023-07-29T00:57:47;1.63;;;1.53;;
2338;SDS011;1180;51.438;6.978;2023-07-29T01:00:15;3.87;;;2.97;;
2338;SDS011;1180;51.438;6.978;2023-07-29T01:02:42;2.27;;;1.87;;
2338;SDS011;1180;51.438;6.978;2023-07-29T01:05:08;3.03;;;2.03;;
2338;SDS011;1180;51.438;6.978;2023-07-29T01:07:39;2.50;;;2.37;;
2338;SDS011;1180;51.438;6.978;2023-07-29T01:13:31;3.10;;;2.13;;
2338;SDS011;1180;51.438;6.978;2023-07-29T01:16:21;2.47;;;2.27;;
2338;SDS011;1180;51.438;6.978;2023-07-29T01:18:51;2.60;;;2.17;;
2338;SDS011;1180;51.438;6.978;2023-07-29T01:21:20;2.33;;;2.13;;
2338;SDS011;1180;51.438;6.978;2023-07-29T01:23:47;1.80;;;1.70;;
2338;SDS011;1180;51.438;6.978;2023-07-29T01:26:13;2.50;;;2.30;;
2338;SDS011;1180;51.438;6.978;2023-07-29T01:28:38;1.70;;;1.60;;
2338;SDS011;1180;51.438;6.978;2023-07-29T01:34:13;2.23;;;1.53;;
2338;SDS011;1180;51.438;6.978;2023-07-29T01:36:40;1.90;;;1.80;;
2338;SDS011;1180;51.438;6.978;2023-07-29T01:39:08;1.60;;;1.50;;
2338;SDS011;1180;51.438;6.978;2023-07-29T01:41:36;1.63;;;1.50;;
2338;SDS011;1180;51.438;6.978;2023-07-29T01:44:02;3.97;;;1.70;;
2338;SDS011;1180;51.438;6.978;2023-07-29T01:46:28;1.80;;;1.70;;
2338;SDS011;1180;51.438;6.978;2023-07-29T01:48:54;2.40;;;1.47;;
2338;SDS011;1180;51.438;6.978;2023-07-29T01:51:20;2.20;;;2.10;;
2338;SDS011;1180;51.438;6.978;2023-07-29T01:53:46;1.70;;;1.60;;
2338;SDS011;1180;51.438;6.978;2023-07-29T01:56:12;3.43;;;1.50;;
2338;SDS011;1180;51.438;6.978;2023-07-29T01:58:38;2.63;;;1.60;;
2338;SDS011;1180;51.438;6.978;2023-07-29T02:01:05;1.90;;;1.80;;
2338;SDS011;1180;51.438;6.978;2023-07-29T02:03:30;2.17;;;1.97;;
2338;SDS011;1180;51.438;6.978;2023-07-29T02:05:56;1.90;;;1.80;;
2338;SDS011;1180;51.438;6.978;2023-07-29T02:08:21;2.60;;;1.67;;
2338;SDS011;1180;51.438;6.978;2023-07-29T02:10:47;2.17;;;1.97;;
2338;SDS011;1180;51.438;6.978;2023-07-29T02:13:13;1.90;;;1.80;;
2338;SDS011;1180;51.438;6.978;2023-07-29T02:15:39;1.53;;;1.43;;
2338;SDS011;1180;51.438;6.978;2023-07-29T02:18:05;1.77;;;1.60;;
2338;SDS011;1180;51.438;6.978;2023-07-29T02:20:32;1.97;;;1.67;;
2338;SDS011;1180;51.438;6.978;2023-07-29T02:22:58;7.47;;;2.47;;
2338;SDS011;1180;51.438;6.978;2023-07-29T02:25:24;1.80;;;1.70;;
2338;SDS011;1180;51.438;6.978;2023-07-29T02:27:49;2.40;;;1.93;;
2338;SDS011;1180;51.438;6.978;2023-07-29T02:30:15;2.20;;;2.00;;
2338;SDS011;1180;51.438;6.978;2023-07-29T02:32:41;1.70;;;1.50;;
2338;SDS011;1180;51.438;6.978;2023-07-29T02:35:07;2.07;;;1.97;;
2338;SDS011;1180;51.438;6.978;2023-07-29T02:37:33;1.60;;;1.47;;
2338;SDS011;1180;51.438;6.978;2023-07-29T02:39:59;2.40;;;2.20;;
2338;SDS011;1180;51.438;6.978;2023-07-29T02:42:25;1.97;;;1.70;;
2338;SDS011;1180;51.438;6.978;2023-07-29T02:44:51;2.00;;;1.57;;
2338;SDS011;1180;51.438;6.978;2023-07-29T02:47:16;1.70;;;1.60;;
2338;SDS011;1180;51.438;6.978;2023-07-29T02:49:42;1.43;;;1.30;;
2338;SDS011;1180;51.438;6.978;2023-07-29T02:52:08;4.23;;;1.70;;
2338;SDS011;1180;51.438;6.978;2023-07-29T02:54:33;1.90;;;1.80;;
2338;SDS011;1180;51.438;6.978;2023-07-29T02:56:59;1.87;;;1.77;;
2338;SDS011;1180;51.438;6.978;2023-07-29T02:59:25;1.50;;;1.40;;
2338;SDS011;1180;51.438;6.978;2023-07-29T03:01:52;2.00;;;1.90;;
2338;SDS011;1180;51.438;6.978;2023-07-29T03:04:18;1.70;;;1.60;;
2338;SDS011;1180;51.438;6.978;2023-07-29T03:06:44;1.90;;;1.80;;
2338;SDS011;1180;51.438;6.978;2023-07-29T03:09:10;1.50;;;1.40;;
2338;SDS011;1180;51.438;6.978;2023-07-29T03:11:35;1.67;;;1.57;;
2338;SDS011;1180;51.438;6.978;2023-07-29T03:14:01;1.70;;;1.60;;
2338;SDS011;1180;51.438;6.978;2023-07-29T03:16:27;1.70;;;1.60;;
2338;SDS011;1180;51.438;6.978;2023-07-29T03:18:52;2.90;;;2.30;;
2338;SDS011;1180;51.438;6.978;2023-07-29T03:21:18;2.60;;;2.00;;
2338;SDS011;1180;51.438;6.978;2023-07-29T03:23:44;2.00;;;1.90;;
2338;SDS011;1180;51.438;6.978;2023-07-29T03:26:10;2.70;;;2.50;;
2338;SDS011;1180;51.438;6.978;2023-07-29T03:28:37;2.10;;;1.90;;
2338;SDS011;1180;51.438;6.978;2023-07-29T03:31:05;2.43;;;2.30;;
2338;SDS011;1180;51.438;6.978;2023-07-29T03:33:30;2.13;;;2.03;;
2338;SDS011;1180;51.438;6.978;2023-07-29T03:35:56;2.27;;;2.10;;
2338;SDS011;1180;51.438;6.978;2023-07-29T03:38:22;2.57;;;2.37;;
2338;SDS011;1180;51.438;6.978;2023-07-29T03:40:48;5.33;;;2.67;;
2338;SDS011;1180;51.438;6.978;2023-07-29T03:43:14;3.70;;;2.23;;
2338;SDS011;1180;51.438;6.978;2023-07-29T03:45:39;2.87;;;2.67;;
2338;SDS011;1180;51.438;6.978;2023-07-29T03:48:05;4.60;;;3.63;;
2338;SDS011;1180;51.438;6.978;2023-07-29T03:50:32;2.63;;;2.43;;
2338;SDS011;1180;51.438;6.978;2023-07-29T03:53:00;2.50;;;2.33;;
2338;SDS011;1180;51.438;6.978;2023-07-29T03:55:26;2.43;;;2.23;;
2338;SDS011;1180;51.438;6.978;2023-07-29T03:57:52;2.80;;;2.60;;
2338;SDS011;1180;51.438;6.978;2023-07-29T04:00:18;3.53;;;3.23;;
2338;SDS011;1180;51.438;6.978;2023-07-29T04:02:43;3.20;;;2.53;;
2338;SDS011;1180;51.438;6.978;2023-07-29T04:05:10;3.90;;;2.80;;
2338;SDS011;1180;51.438;6.978;2023-07-29T04:07:38;3.13;;;2.87;;
2338;SDS011;1180;51.438;6.978;2023-07-29T04:10:05;3.00;;;2.80;;
2338;SDS011;1180;51.438;6.978;2023-07-29T04:12:31;3.53;;;3.00;;
2338;SDS011;1180;51.438;6.978;2023-07-29T04:14:57;3.40;;;3.10;;
2338;SDS011;1180;51.438;6.978;2023-07-29T04:17:23;4.00;;;3.60;;
2338;SDS011;1180;51.438;6.978;2023-07-29T04:19:48;3.53;;;3.20;;
2338;SDS011;1180;51.438;6.978;2023-07-29T04:22:15;6.63;;;3.73;;
2338;SDS011;1180;51.438;6.978;2023-07-29T04:24:41;3.57;;;3.27;;
2338;SDS011;1180;51.438;6.978;2023-07-29T04:27:08;2.97;;;2.77;;
2338;SDS011;1180;51.438;6.978;2023-07-29T04:29:33;3.47;;;3.20;;
2338;SDS011;1180;51.438;6.978;2023-07-29T04:32:01;3.30;;;3.03;;
2338;SDS011;1180;51.438;6.978;2023-07-29T04:34:27;3.27;;;3.07;;
2338;SDS011;1180;51.438;6.978;2023-07-29T04:36:53;3.20;;;3.00;;
2338;SDS011;1180;51.438;6.978;2023-07-29T04:39:18;3.97;;;2.97;;
2338;SDS011;1180;51.438;6.978;2023-07-29T04:41:44;3.23;;;2.93;;
2338;SDS011;1180;51.438;6.978;2023-07-29T04:44:10;3.63;;;3.33;;
2338;SDS011;1180;51.438;6.978;2023-07-29T04:46:36;3.60;;;3.30;;
2338;SDS011;1180;51.438;6.978;2023-07-29T04:49:03;3.60;;;3.30;;
2338;SDS011;1180;51.438;6.978;2023-07-29T04:51:29;4.27;;;3.97;;
2338;SDS011;1180;51.438;6.978;2023-07-29T04:53:56;4.57;;;4.10;;
2338;SDS011;1180;51.438;6.978;2023-07-29T04:56:23;5.03;;;4.30;;
2338;SDS011;1180;51.438;6.978;2023-07-29T04:58:48;4.23;;;3.93;;
2338;SDS011;1180;51.438;6.978;2023-07-29T05:01:14;4.33;;;4.03;;
2338;SDS011;1180;51.438;6.978;2023-07-29T05:03:42;5.07;;;4.67;;
2338;SDS011;1180;51.438;6.978;2023-07-29T05:06:08;4.43;;;4.13;;
2338;SDS011;1180;51.438;6.978;2023-07-29T05:08:33;5.70;;;5.20;;
2338;SDS011;1180;51.438;6.978;2023-07-29T05:10:59;7.10;;;5.10;;
2338;SDS011;1180;51.438;6.978;2023-07-29T05:13:27;5.20;;;4.70;;
2338;SDS011;1180;51.438;6.978;2023-07-29T05:15:53;5.80;;;5.20;;
2338;SDS011;1180;51.438;6.978;2023-07-29T05:18:19;5.67;;;5.20;;
2338;SDS011;1180;51.438;6.978;2023-07-29T05:20:46;5.70;;;5.20;;
2338;SDS011;1180;51.438;6.978;2023-07-29T05:23:13;6.07;;;5.57;;
2338;SDS011;1180;51.438;6.978;2023-07-29T05:25:39;5.87;;;5.40;;
2338;SDS011;1180;51.438;6.978;2023-07-29T05:28:05;6.83;;;6.30;;
2338;SDS011;1180;51.438;6.978;2023-07-29T05:30:32;7.10;;;6.50;;
2338;SDS011;1180;51.438;6.978;2023-07-29T05:32:59;7.20;;;6.70;;
2338;SDS011;1180;51.438;6.978;2023-07-29T05:35:36;6.90;;;6.30;;
2338;SDS011;1180;51.438;6.978;2023-07-29T05:38:02;6.97;;;6.33;;
2338;SDS011;1180;51.438;6.978;2023-07-29T05:40:30;6.50;;;5.93;;
2338;SDS011;1180;51.438;6.978;2023-07-29T05:42:55;6.57;;;6.07;;
2338;SDS011;1180;51.438;6.978;2023-07-29T05:45:21;5.07;;;4.67;;
2338;SDS011;1180;51.438;6.978;2023-07-29T05:47:47;5.63;;;5.20;;
2338;SDS011;1180;51.438;6.978;2023-07-29T05:50:13;4.70;;;4.30;;
2338;SDS011;1180;51.438;6.978;2023-07-29T05:52:38;4.73;;;4.33;;
2338;SDS011;1180;51.438;6.978;2023-07-29T05:55:04;5.30;;;4.80;;
2338;SDS011;1180;51.438;6.978;2023-07-29T05:57:29;4.93;;;4.43;;
2338;SDS011;1180;51.438;6.978;2023-07-29T05:59:55;4.90;;;4.50;;
2338;SDS011;1180;51.438;6.978;2023-07-29T06:02:22;3.50;;;3.30;;
2338;SDS011;1180;51.438;6.978;2023-07-29T06:04:48;4.10;;;3.33;;
2338;SDS011;1180;51.438;6.978;2023-07-29T06:07:13;3.20;;;2.80;;
2338;SDS011;1180;51.438;6.978;2023-07-29T06:09:39;3.00;;;2.70;;
2338;SDS011;1180;51.438;6.978;2023-07-29T06:12:05;2.50;;;2.30;;
2338;SDS011;1180;51.438;6.978;2023-07-29T06:14:31;2.73;;;2.50;;
2338;SDS011;1180;51.438;6.978;2023-07-29T06:16:57;3.27;;;2.33;;
2338;SDS011;1180;51.438;6.978;2023-07-29T06:19:23;1.90;;;1.80;;
2338;SDS011;1180;51.438;6.978;2023-07-29T06:21:48;2.70;;;2.17;;
2338;SDS011;1180;51.438;6.978;2023-07-29T06:24:14;2.37;;;1.90;;
2338;SDS011;1180;51.438;6.978;2023-07-29T06:26:40;3.03;;;1.90;;
2338;SDS011;1180;51.438;6.978;2023-07-29T06:29:06;2.73;;;2.20;;
2338;SDS011;1180;51.438;6.978;2023-07-29T06:31:32;2.10;;;2.00;;
2338;SDS011;1180;51.438;6.978;2023-07-29T06:33:58;2.13;;;1.93;;
2338;SDS011;1180;51.438;6.978;2023-07-29T06:36:24;2.07;;;1.70;;
2338;SDS011;1180;51.438;6.978;2023-07-29T06:38:50;2.37;;;2.17;;
2338;SDS011;1180;51.438;6.978;2023-07-29T06:41:16;2.20;;;2.00;;
2338;SDS011;1180;51.438;6.978;2023-07-29T06:43:42;3.10;;;2.00;;
2338;SDS011;1180;51.438;6.978;2023-07-29T06:46:08;2.40;;;2.20;;
2338;SDS011;1180;51.438;6.978;2023-07-29T06:48:34;2.10;;;1.90;;
2338;SDS011;1180;51.438;6.978;2023-07-29T06:51:00;2.07;;;1.80;;
2338;SDS011;1180;51.438;6.978;2023-07-29T06:53:27;3.60;;;2.10;;
2338;SDS011;1180;51.438;6.978;2023-07-29T06:55:53;2.20;;;1.60;;
2338;SDS011;1180;51.438;6.978;2023-07-29T06:58:19;2.07;;;1.90;;
2338;SDS011;1180;51.438;6.978;2023-07-29T07:00:45;2.20;;;1.77;;
2338;SDS011;1180;51.438;6.978;2023-07-29T07:03:10;1.77;;;1.67;;
2338;SDS011;1180;51.438;6.978;2023-07-29T07:05:36;1.63;;;1.53;;
2338;SDS011;1180;51.438;6.978;2023-07-29T07:08:02;4.20;;;1.73;;
2338;SDS011;1180;51.438;6.978;2023-07-29T07:10:27;1.63;;;1.53;;
2338;SDS011;1180;51.438;6.978;2023-07-29T07:12:53;5.93;;;2.10;;
2338;SDS011;1180;51.438;6.978;2023-07-29T07:15:19;2.93;;;2.63;;
2338;SDS011;1180;51.438;6.978;2023-07-29T07:17:45;3.87;;;2.70;;
2338;SDS011;1180;51.438;6.978;2023-07-29T07:20:10;3.73;;;2.37;;
2338;SDS011;1180;51.438;6.978;2023-07-29T07:22:36;2.43;;;2.23;;
2338;SDS011;1180;51.438;6.978;2023-07-29T07:25:02;3.53;;;2.03;;
2338;SDS011;1180;51.438;6.978;2023-07-29T07:27:30;5.03;;;2.60;;
2338;SDS011;1180;51.438;6.978;2023-07-29T07:29:56;2.17;;;1.97;;
2338;SDS011;1180;51.438;6.978;2023-07-29T07:32:22;3.00;;;2.27;;
2338;SDS011;1180;51.438;6.978;2023-07-29T07:34:48;2.80;;;2.07;;
2338;SDS011;1180;51.438;6.978;2023-07-29T07:37:13;4.60;;;1.90;;
2338;SDS011;1180;51.438;6.978;2023-07-29T07:39:39;2.43;;;2.23;;
2338;SDS011;1180;51.438;6.978;2023-07-29T07:42:05;3.03;;;2.70;;
2338;SDS011;1180;51.438;6.978;2023-07-29T07:44:31;2.67;;;1.97;;
2338;SDS011;1180;51.438;6.978;2023-07-29T07:46:56;2.50;;;2.30;;
2338;SDS011;1180;51.438;6.978;2023-07-29T07:49:23;4.20;;;2.10;;
2338;SDS011;1180;51.438;6.978;2023-07-29T07:51:48;2.37;;;2.00;;
2338;SDS011;1180;51.438;6.978;2023-07-29T07:54:16;1.80;;;1.70;;
2338;SDS011;1180;51.438;6.978;2023-07-29T07:56:42;2.03;;;1.20;;
2338;SDS011;1180;51.438;6.978;2023-07-29T07:59:08;1.50;;;1.40;;
2338;SDS011;1180;51.438;6.978;2023-07-29T08:01:34;3.00;;;1.67;;
2338;SDS011;1180;51.438;6.978;2023-07-29T08:04:01;2.23;;;1.80;;
2338;SDS011;1180;51.438;6.978;2023-07-29T08:06:28;2.40;;;1.57;;
2338;SDS011;1180;51.438;6.978;2023-07-29T08:08:55;2.40;;;1.93;;
2338;SDS011;1180;51.438;6.978;2023-07-29T08:11:21;1.70;;;1.60;;
2338;SDS011;1180;51.438;6.978;2023-07-29T08:13:47;2.27;;;2.07;;
2338;SDS011;1180;51.438;6.978;2023-07-29T08:16:12;2.10;;;1.90;;
2338;SDS011;1180;51.438;6.978;2023-07-29T08:18:38;2.10;;;1.43;;
2338;SDS011;1180;51.438;6.978;2023-07-29T08:21:04;2.33;;;1.60;;
2338;SDS011;1180;51.438;6.978;2023-07-29T08:23:30;1.70;;;1.60;;
2338;SDS011;1180;51.438;6.978;2023-07-29T08:25:57;1.53;;;1.43;;
2338;SDS011;1180;51.438;6.978;2023-07-29T08:28:28;2.00;;;1.70;;
2338;SDS011;1180;51.438;6.978;2023-07-29T08:30:55;2.30;;;1.77;;
2338;SDS011;1180;51.438;6.978;2023-07-29T08:33:21;2.53;;;1.90;;
2338;SDS011;1180;51.438;6.978;2023-07-29T08:35:47;2.30;;;2.20;;
2338;SDS011;1180;51.438;6.978;2023-07-29T08:38:12;3.20;;;1.87;;
2338;SDS011;1180;51.438;6.978;2023-07-29T08:40:42;2.27;;;2.07;;
2338;SDS011;1180;51.438;6.978;2023-07-29T08:43:10;1.97;;;1.87;;
2338;SDS011;1180;51.438;6.978;2023-07-29T08:45:39;2.17;;;1.80;;
2338;SDS011;1180;51.438;6.978;2023-07-29T08:48:08;2.37;;;1.90;;
2338;SDS011;1180;51.438;6.978;2023-07-29T08:50:36;1.83;;;1.67;;
2338;SDS011;1180;51.438;6.978;2023-07-29T08:53:05;1.30;;;1.20;;
2338;SDS011;1180;51.438;6.978;2023-07-29T08:55:31;1.80;;;1.70;;
2338;SDS011;1180;51.438;6.978;2023-07-29T08:57:59;1.70;;;1.60;;
2338;SDS011;1180;51.438;6.978;2023-07-29T09:00:26;1.97;;;1.87;;
2338;SDS011;1180;51.438;6.978;2023-07-29T09:02:53;3.73;;;2.10;;
2338;SDS011;1180;51.438;6.978;2023-07-29T09:05:20;2.80;;;2.20;;
2338;SDS011;1180;51.438;6.978;2023-07-29T09:07:46;2.40;;;1.87;;
2338;SDS011;1180;51.438;6.978;2023-07-29T09:10:13;1.43;;;1.33;;
2338;SDS011;1180;51.438;6.978;2023-07-29T09:12:39;1.40;;;1.30;;
2338;SDS011;1180;51.438;6.978;2023-07-29T09:15:05;1.30;;;1.00;;
2338;SDS011;1180;51.438;6.978;2023-07-29T09:17:34;1.33;;;0.90;;
2338;SDS011;1180;51.438;6.978;2023-07-29T09:20:00;1.80;;;1.30;;
2338;SDS011;1180;51.438;6.978;2023-07-29T09:22:26;1.60;;;1.10;;
2338;SDS011;1180;51.438;6.978;2023-07-29T09:24:53;1.47;;;1.30;;
2338;SDS011;1180;51.438;6.978;2023-07-29T09:27:28;1.53;;;1.03;;
2338;SDS011;1180;51.438;6.978;2023-07-29T09:29:57;1.20;;;1.10;;
2338;SDS011;1180;51.438;6.978;2023-07-29T09:32:23;1.40;;;1.30;;
2338;SDS011;1180;51.438;6.978;2023-07-29T09:34:50;1.37;;;1.27;;
2338;SDS011;1180;51.438;6.978;2023-07-29T09:37:22;1.50;;;1.40;;
2338;SDS011;1180;51.438;6.978;2023-07-29T09:39:49;2.07;;;1.37;;
2338;SDS011;1180;51.438;6.978;2023-07-29T09:42:21;1.87;;;1.70;;
2338;SDS011;1180;51.438;6.978;2023-07-29T09:44:48;1.60;;;1.50;;
2338;SDS011;1180;51.438;6.978;2023-07-29T09:47:19;2.30;;;1.60;;
2338;SDS011;1180;51.438;6.978;2023-07-29T09:49:49;1.73;;;1.50;;
2338;SDS011;1180;51.438;6.978;2023-07-29T09:52:16;1.57;;;1.23;;
2338;SDS011;1180;51.438;6.978;2023-07-29T09:54:47;1.20;;;1.00;;
2338;SDS011;1180;51.438;6.978;2023-07-29T09:57:13;1.77;;;1.17;;
2338;SDS011;1180;51.438;6.978;2023-07-29T09:59:40;1.73;;;1.00;;
2338;SDS011;1180;51.438;6.978;2023-07-29T10:02:13;1.50;;;1.37;;
2338;SDS011;1180;51.438;6.978;2023-07-29T10:04:41;2.00;;;1.03;;
2338;SDS011;1180;51.438;6.978;2023-07-29T10:07:11;1.20;;;0.80;;
2338;SDS011;1180;51.438;6.978;2023-07-29T10:09:40;2.50;;;1.47;;
2338;SDS011;1180;51.438;6.978;2023-07-29T10:12:07;2.77;;;1.23;;
2338;SDS011;1180;51.438;6.978;2023-07-29T10:14:34;1.37;;;1.07;;
2338;SDS011;1180;51.438;6.978;2023-07-29T10:17:02;2.30;;;1.20;;
2338;SDS011;1180;51.438;6.978;2023-07-29T10:19:28;1.20;;;1.10;;
2338;SDS011;1180;51.438;6.978;2023-07-29T10:21:56;1.20;;;1.10;;
2338;SDS011;1180;51.438;6.978;2023-07-29T10:24:32;1.30;;;1.20;;
2338;SDS011;1180;51.438;6.978;2023-07-29T10:27:00;2.40;;;1.33;;
2338;SDS011;1180;51.438;6.978;2023-07-29T10:29:32;3.20;;;2.00;;
2338;SDS011;1180;51.438;6.978;2023-07-29T10:32:07;1.87;;;1.70;;
2338;SDS011;1180;51.438;6.978;2023-07-29T10:34:35;1.70;;;1.60;;
2338;SDS011;1180;51.438;6.978;2023-07-29T10:37:02;1.57;;;1.47;;
2338;SDS011;1180;51.438;6.978;2023-07-29T10:39:35;1.90;;;1.73;;
2338;SDS011;1180;51.438;6.978;2023-07-29T10:42:05;1.47;;;1.37;;
2338;SDS011;1180;51.438;6.978;2023-07-29T10:47:13;2.13;;;1.93;;
2338;SDS011;1180;51.438;6.978;2023-07-29T10:49:43;1.30;;;1.20;;
2338;SDS011;1180;51.438;6.978;2023-07-29T10:52:14;2.03;;;1.83;;
2338;SDS011;1180;51.438;6.978;2023-07-29T10:54:42;2.23;;;1.57;;
2338;SDS011;1180;51.438;6.978;2023-07-29T10:57:12;1.60;;;1.50;;
2338;SDS011;1180;51.438;6.978;2023-07-29T11:00:00;1.77;;;1.00;;
2338;SDS011;1180;51.438;6.978;2023-07-29T11:02:38;1.43;;;1.33;;
2338;SDS011;1180;51.438;6.978;2023-07-29T11:05:16;1.13;;;0.97;;
2338;SDS011;1180;51.438;6.978;2023-07-29T11:07:44;2.10;;;1.30;;
2338;SDS011;1180;51.438;6.978;2023-07-29T11:10:11;1.20;;;1.10;;
2338;SDS011;1180;51.438;6.978;2023-07-29T11:17:34;1.53;;;1.37;;
2338;SDS011;1180;51.438;6.978;2023-07-29T11:20:01;5.83;;;1.63;;
2338;SDS011;1180;51.438;6.978;2023-07-29T11:22:28;2.40;;;1.47;;
2338;SDS011;1180;51.438;6.978;2023-07-29T11:24:56;4.17;;;1.57;;
2338;SDS011;1180;51.438;6.978;2023-07-29T11:27:23;1.60;;;1.40;;
2338;SDS011;1180;51.438;6.978;2023-07-29T11:29:49;2.97;;;1.50;;
2338;SDS011;1180;51.438;6.978;2023-07-29T11:32:15;2.23;;;1.50;;
2338;SDS011;1180;51.438;6.978;2023-07-29T11:34:41;3.27;;;1.63;;
2338;SDS011;1180;51.438;6.978;2023-07-29T11:37:10;2.33;;;1.23;;
2338;SDS011;1180;51.438;6.978;2023-07-29T11:39:43;2.00;;;1.27;;
2338;SDS011;1180;51.438;6.978;2023-07-29T11:42:16;1.53;;;1.33;;
2338;SDS011;1180;51.438;6.978;2023-07-29T11:44:42;1.30;;;1.20;;
2338;SDS011;1180;51.438;6.978;2023-07-29T11:47:08;1.20;;;1.00;;
2338;SDS011;1180;51.438;6.978;2023-07-29T11:49:34;2.83;;;1.43;;
2338;SDS011;1180;51.438;6.978;2023-07-29T11:52:01;1.93;;;1.30;;
2338;SDS011;1180;51.438;6.978;2023-07-29T11:54:29;1.37;;;1.20;;
2338;SDS011;1180;51.438;6.978;2023-07-29T11:56:55;1.73;;;1.43;;
2338;SDS011;1180;51.438;6.978;2023-07-29T11:59:21;1.23;;;1.13;;
2338;SDS011;1180;51.438;6.978;2023-07-29T12:01:47;2.00;;;1.10;;
2338;SDS011;1180;51.438;6.978;2023-07-29T12:04:13;3.17;;;1.60;;
2338;SDS011;1180;51.438;6.978;2023-07-29T12:06:39;1.73;;;1.13;;
2338;SDS011;1180;51.438;6.978;2023-07-29T12:09:05;2.80;;;1.20;;
2338;SDS011;1180;51.438;6.978;2023-07-29T12:11:31;1.20;;;1.10;;
2338;SDS011;1180;51.438;6.978;2023-07-29T12:13:59;1.13;;;1.03;;
2338;SDS011;1180;51.438;6.978;2023-07-29T12:16:25;1.83;;;1.57;;
2338;SDS011;1180;51.438;6.978;2023-07-29T12:18:51;1.13;;;1.00;;
2338;SDS011;1180;51.438;6.978;2023-07-29T12:21:17;1.37;;;1.27;;
2338;SDS011;1180;51.438;6.978;2023-07-29T12:23:44;1.30;;;1.20;;
2338;SDS011;1180;51.438;6.978;2023-07-29T12:26:10;1.40;;;1.30;;
2338;SDS011;1180;51.438;6.978;2023-07-29T12:28:36;1.20;;;1.07;;
2338;SDS011;1180;51.438;6.978;2023-07-29T12:31:01;1.10;;;1.00;;
2338;SDS011;1180;51.438;6.978;2023-07-29T12:33:36;1.70;;;1.20;;
2338;SDS011;1180;51.438;6.978;2023-07-29T12:36:04;2.30;;;1.90;;
2338;SDS011;1180;51.438;6.978;2023-07-29T12:38:30;1.40;;;1.30;;
2338;SDS011;1180;51.438;6.978;2023-07-29T12:40:56;3.90;;;1.53;;
2338;SDS011;1180;51.438;6.978;2023-07-29T12:43:22;2.40;;;1.20;;
2338;SDS011;1180;51.438;6.978;2023-07-29T12:45:51;1.43;;;1.20;;
2338;SDS011;1180;51.438;6.978;2023-07-29T12:48:18;2.43;;;1.50;;
2338;SDS011;1180;51.438;6.978;2023-07-29T12:50:44;1.40;;;1.30;;
2338;SDS011;1180;51.438;6.978;2023-07-29T12:53:09;1.83;;;1.30;;
2338;SDS011;1180;51.438;6.978;2023-07-29T12:55:36;1.40;;;1.30;;
2338;SDS011;1180;51.438;6.978;2023-07-29T12:58:02;1.60;;;1.50;;
2338;SDS011;1180;51.438;6.978;2023-07-29T13:00:28;1.43;;;1.33;;
2338;SDS011;1180;51.438;6.978;2023-07-29T13:02:54;2.13;;;1.40;;
2338;SDS011;1180;51.438;6.978;2023-07-29T13:05:20;1.57;;;1.27;;
2338;SDS011;1180;51.438;6.978;2023-07-29T13:07:46;3.40;;;1.50;;
2338;SDS011;1180;51.438;6.978;2023-07-29T13:10:12;2.00;;;1.80;;
2338;SDS011;1180;51.438;6.978;2023-07-29T13:12:39;1.97;;;1.50;;
2338;SDS011;1180;51.438;6.978;2023-07-29T13:15:05;3.40;;;1.50;;
2338;SDS011;1180;51.438;6.978;2023-07-29T13:17:32;3.73;;;1.43;;
2338;SDS011;1180;51.438;6.978;2023-07-29T13:19:58;1.70;;;1.53;;
2338;SDS011;1180;51.438;6.978;2023-07-29T13:22:24;1.40;;;1.30;;
2338;SDS011;1180;51.438;6.978;2023-07-29T13:24:50;2.40;;;1.43;;
2338;SDS011;1180;51.438;6.978;2023-07-29T13:27:17;1.67;;;1.57;;
2338;SDS011;1180;51.438;6.978;2023-07-29T13:29:43;2.30;;;1.70;;
2338;SDS011;1180;51.438;6.978;2023-07-29T13:32:09;1.53;;;1.43;;
2338;SDS011;1180;51.438;6.978;2023-07-29T13:34:36;1.77;;;1.67;;
2338;SDS011;1180;51.438;6.978;2023-07-29T13:37:01;2.23;;;1.70;;
2338;SDS011;1180;51.438;6.978;2023-07-29T13:39:27;1.17;;;1.07;;
2338;SDS011;1180;51.438;6.978;2023-07-29T13:41:54;1.30;;;1.20;;
2338;SDS011;1180;51.438;6.978;2023-07-29T13:44:20;1.67;;;1.57;;
2338;SDS011;1180;51.438;6.978;2023-07-29T13:46:45;1.37;;;1.13;;
2338;SDS011;1180;51.438;6.978;2023-07-29T13:49:11;1.63;;;1.53;;
2338;SDS011;1180;51.438;6.978;2023-07-29T13:51:37;2.00;;;1.33;;
2338;SDS011;1180;51.438;6.978;2023-07-29T13:54:02;1.60;;;1.50;;
2338;SDS011;1180;51.438;6.978;2023-07-29T13:56:28;1.90;;;1.40;;
2338;SDS011;1180;51.438;6.978;2023-07-29T13:58:54;1.57;;;1.37;;
2338;SDS011;1180;51.438;6.978;2023-07-29T14:01:20;1.67;;;1.50;;
2338;SDS011;1180;51.438;6.978;2023-07-29T14:03:45;3.20;;;1.80;;
2338;SDS011;1180;51.438;6.978;2023-07-29T14:06:11;3.20;;;2.10;;
2338;SDS011;1180;51.438;6.978;2023-07-29T14:08:36;1.70;;;1.53;;
2338;SDS011;1180;51.438;6.978;2023-07-29T14:11:03;2.87;;;2.03;;
2338;SDS011;1180;51.438;6.978;2023-07-29T14:13:29;2.63;;;2.07;;
2338;SDS011;1180;51.438;6.978;2023-07-29T14:15:54;2.23;;;2.00;;
2338;SDS011;1180;51.438;6.978;2023-07-29T14:18:20;3.57;;;2.13;;
2338;SDS011;1180;51.438;6.978;2023-07-29T14:20:46;3.40;;;1.77;;
2338;SDS011;1180;51.438;6.978;2023-07-29T14:23:14;1.57;;;1.47;;
2338;SDS011;1180;51.438;6.978;2023-07-29T14:25:41;3.43;;;2.27;;
2338;SDS011;1180;51.438;6.978;2023-07-29T14:28:06;4.50;;;1.93;;
2338;SDS011;1180;51.438;6.978;2023-07-29T14:30:32;5.50;;;1.80;;
2338;SDS011;1180;51.438;6.978;2023-07-29T14:33:00;1.33;;;1.23;;
2338;SDS011;1180;51.438;6.978;2023-07-29T14:35:26;2.00;;;1.50;;
2338;SDS011;1180;51.438;6.978;2023-07-29T14:37:52;2.37;;;1.77;;
2338;SDS011;1180;51.438;6.978;2023-07-29T14:40:23;3.27;;;2.13;;
2338;SDS011;1180;51.438;6.978;2023-07-29T14:42:49;2.87;;;2.47;;
2338;SDS011;1180;51.438;6.978;2023-07-29T14:45:14;2.67;;;2.47;;
2338;SDS011;1180;51.438;6.978;2023-07-29T14:47:40;3.10;;;2.73;;
2338;SDS011;1180;51.438;6.978;2023-07-29T14:50:06;2.63;;;2.43;;
2338;SDS011;1180;51.438;6.978;2023-07-29T14:52:32;2.80;;;2.33;;
2338;SDS011;1180;51.438;6.978;2023-07-29T14:54:57;4.63;;;2.03;;
2338;SDS011;1180;51.438;6.978;2023-07-29T14:57:23;3.47;;;2.70;;
2338;SDS011;1180;51.438;6.978;2023-07-29T14:59:49;3.53;;;3.20;;
2338;SDS011;1180;51.438;6.978;2023-07-29T15:02:14;4.80;;;2.63;;
2338;SDS011;1180;51.438;6.978;2023-07-29T15:04:40;2.73;;;2.47;;
2338;SDS011;1180;51.438;6.978;2023-07-29T15:07:06;2.87;;;2.60;;
2338;SDS011;1180;51.438;6.978;2023-07-29T15:09:31;2.80;;;2.60;;
2338;SDS011;1180;51.438;6.978;2023-07-29T15:11:57;3.07;;;2.20;;
2338;SDS011;1180;51.438;6.978;2023-07-29T15:14:23;2.97;;;2.63;;
2338;SDS011;1180;51.438;6.978;2023-07-29T15:16:48;3.20;;;2.90;;
2338;SDS011;1180;51.438;6.978;2023-07-29T15:19:14;3.07;;;2.87;;
2338;SDS011;1180;51.438;6.978;2023-07-29T15:21:40;2.93;;;2.63;;
2338;SDS011;1180;51.438;6.978;2023-07-29T15:24:05;2.50;;;2.30;;
2338;SDS011;1180;51.438;6.978;2023-07-29T15:26:31;2.93;;;2.70;;